sensor_id;sensor_type;location;lat;lon;timestamp;P1;durP1;ratioP1;P2;durP2;ratioP2
3261;SDS011;1643;47.746;9.000;2022-12-07T00:00:49;25.23;;;14.20;;
3261;SDS011;1643;47.746;9.000;2022-12-07T00:03:16;26.30;;;15.77;;
3261;SDS011;1643;47.746;9.000;2022-12-07T00:05:42;23.80;;;14.67;;
3261;SDS011;1643;47.746;9.000;2022-12-07T00:08:08;22.30;;;13.40;;
3261;SDS011;1643;47.746;9.000;2022-12-07T00:10:34;24.80;;;14.60;;
3261;SDS011;1643;47.746;9.000;2022-12-07T00:13:00;22.07;;;13.47;;
3261;SDS011;1643;47.746;9.000;2022-12-07T00:15:26;25.20;;;14.47;;
3261;SDS011;1643;47.746;9.000;2022-12-07T00:17:52;23.83;;;14.80;;
3261;SDS011;1643;47.746;9.000;2022-12-07T00:20:18;29.20;;;16.17;;
3261;SDS011;1643;47.746;9.000;2022-12-07T00:22:44;21.60;;;14.20;;
3261;SDS011;1643;47.746;9.000;2022-12-07T00:25:10;24.43;;;14.83;;
3261;SDS011;1643;47.746;9.000;2022-12-07T00:27:36;22.90;;;13.43;;
3261;SDS011;1643;47.746;9.000;2022-12-07T00:30:02;19.93;;;13.10;;
3261;SDS011;1643;47.746;9.000;2022-12-07T00:32:28;24.90;;;14.40;;
3261;SDS011;1643;47.746;9.000;2022-12-07T00:34:54;25.57;;;14.90;;
3261;SDS011;1643;47.746;9.000;2022-12-07T00:37:20;27.80;;;16.53;;
3261;SDS011;1643;47.746;9.000;2022-12-07T00:39:46;24.90;;;15.30;;
3261;SDS011;1643;47.746;9.000;2022-12-07T00:42:12;28.57;;;15.97;;
3261;SDS011;1643;47.746;9.000;2022-12-07T00:44:38;26.83;;;15.87;;
3261;SDS011;1643;47.746;9.000;2022-12-07T00:47:04;26.77;;;15.50;;
3261;SDS011;1643;47.746;9.000;2022-12-07T00:49:30;24.40;;;14.53;;
3261;SDS011;1643;47.746;9.000;2022-12-07T00:51:56;27.67;;;16.20;;
3261;SDS011;1643;47.746;9.000;2022-12-07T00:54:22;30.83;;;16.80;;
3261;SDS011;1643;47.746;9.000;2022-12-07T00:56:48;27.73;;;16.47;;
3261;SDS011;1643;47.746;9.000;2022-12-07T00:59:14;23.33;;;13.47;;
3261;SDS011;1643;47.746;9.000;2022-12-07T01:01:40;35.50;;;17.97;;
3261;SDS011;1643;47.746;9.000;2022-12-07T01:04:06;30.57;;;15.17;;
3261;SDS011;1643;47.746;9.000;2022-12-07T01:06:32;24.77;;;15.20;;
3261;SDS011;1643;47.746;9.000;2022-12-07T01:08:58;23.37;;;14.87;;
3261;SDS011;1643;47.746;9.000;2022-12-07T01:11:25;30.83;;;16.63;;
3261;SDS011;1643;47.746;9.000;2022-12-07T01:13:52;24.23;;;15.10;;
3261;SDS011;1643;47.746;9.000;2022-12-07T01:16:20;24.53;;;14.90;;
3261;SDS011;1643;47.746;9.000;2022-12-07T01:18:47;27.00;;;15.40;;
3261;SDS011;1643;47.746;9.000;2022-12-07T01:21:14;26.37;;;15.10;;
3261;SDS011;1643;47.746;9.000;2022-12-07T01:23:41;27.03;;;16.07;;
3261;SDS011;1643;47.746;9.000;2022-12-07T01:26:09;30.67;;;16.77;;
3261;SDS011;1643;47.746;9.000;2022-12-07T01:28:36;29.27;;;15.57;;
3261;SDS011;1643;47.746;9.000;2022-12-07T01:31:03;26.97;;;15.60;;
3261;SDS011;1643;47.746;9.000;2022-12-07T01:33:30;29.03;;;16.83;;
3261;SDS011;1643;47.746;9.000;2022-12-07T01:36:00;27.60;;;16.63;;
3261;SDS011;1643;47.746;9.000;2022-12-07T01:38:26;27.10;;;15.40;;
3261;SDS011;1643;47.746;9.000;2022-12-07T01:40:55;29.03;;;15.73;;
3261;SDS011;1643;47.746;9.000;2022-12-07T01:43:22;29.00;;;16.57;;
3261;SDS011;1643;47.746;9.000;2022-12-07T01:45:49;24.30;;;14.70;;
3261;SDS011;1643;47.746;9.000;2022-12-07T01:48:16;28.80;;;15.93;;
3261;SDS011;1643;47.746;9.000;2022-12-07T01:50:43;20.40;;;12.90;;
3261;SDS011;1643;47.746;9.000;2022-12-07T01:53:09;23.40;;;14.27;;
3261;SDS011;1643;47.746;9.000;2022-12-07T01:55:37;27.27;;;15.60;;
3261;SDS011;1643;47.746;9.000;2022-12-07T01:58:04;26.50;;;15.23;;
3261;SDS011;1643;47.746;9.000;2022-12-07T02:00:30;26.30;;;16.00;;
3261;SDS011;1643;47.746;9.000;2022-12-07T02:02:58;27.53;;;15.53;;
3261;SDS011;1643;47.746;9.000;2022-12-07T02:05:25;27.93;;;16.80;;
3261;SDS011;1643;47.746;9.000;2022-12-07T02:07:53;23.27;;;14.33;;
3261;SDS011;1643;47.746;9.000;2022-12-07T02:10:21;26.70;;;15.07;;
3261;SDS011;1643;47.746;9.000;2022-12-07T02:12:58;26.87;;;15.73;;
3261;SDS011;1643;47.746;9.000;2022-12-07T02:15:30;22.80;;;15.10;;
3261;SDS011;1643;47.746;9.000;2022-12-07T02:18:07;24.20;;;14.63;;
3261;SDS011;1643;47.746;9.000;2022-12-07T02:23:13;28.97;;;16.37;;
3261;SDS011;1643;47.746;9.000;2022-12-07T02:25:56;25.33;;;16.57;;
3261;SDS011;1643;47.746;9.000;2022-12-07T02:30:52;26.97;;;14.80;;
3261;SDS011;1643;47.746;9.000;2022-12-07T02:33:31;24.07;;;14.53;;
3261;SDS011;1643;47.746;9.000;2022-12-07T02:36:04;29.27;;;17.37;;
3261;SDS011;1643;47.746;9.000;2022-12-07T02:38:37;26.70;;;15.07;;
3261;SDS011;1643;47.746;9.000;2022-12-07T02:41:05;25.73;;;15.07;;
3261;SDS011;1643;47.746;9.000;2022-12-07T02:43:38;26.57;;;16.40;;
3261;SDS011;1643;47.746;9.000;2022-12-07T02:46:09;29.00;;;15.70;;
3261;SDS011;1643;47.746;9.000;2022-12-07T02:48:36;29.90;;;15.13;;
3261;SDS011;1643;47.746;9.000;2022-12-07T02:51:04;24.77;;;14.70;;
3261;SDS011;1643;47.746;9.000;2022-12-07T02:53:30;25.50;;;15.30;;
3261;SDS011;1643;47.746;9.000;2022-12-07T02:55:57;25.97;;;15.50;;
3261;SDS011;1643;47.746;9.000;2022-12-07T03:01:27;30.23;;;16.90;;
3261;SDS011;1643;47.746;9.000;2022-12-07T03:03:51;26.10;;;15.20;;
3261;SDS011;1643;47.746;9.000;2022-12-07T03:06:27;27.70;;;16.17;;
3261;SDS011;1643;47.746;9.000;2022-12-07T03:09:02;23.50;;;13.57;;
3261;SDS011;1643;47.746;9.000;2022-12-07T03:11:34;28.47;;;15.47;;
3261;SDS011;1643;47.746;9.000;2022-12-07T03:14:45;26.10;;;15.40;;
3261;SDS011;1643;47.746;9.000;2022-12-07T03:16:55;27.50;;;16.20;;
3261;SDS011;1643;47.746;9.000;2022-12-07T03:19:23;25.77;;;15.50;;
3261;SDS011;1643;47.746;9.000;2022-12-07T03:21:51;23.87;;;14.50;;
3261;SDS011;1643;47.746;9.000;2022-12-07T03:24:19;28.93;;;15.87;;
3261;SDS011;1643;47.746;9.000;2022-12-07T03:26:47;24.17;;;15.50;;
3261;SDS011;1643;47.746;9.000;2022-12-07T03:29:21;24.00;;;15.93;;
3261;SDS011;1643;47.746;9.000;2022-12-07T03:31:51;26.60;;;15.90;;
3261;SDS011;1643;47.746;9.000;2022-12-07T03:34:24;24.00;;;14.60;;
3261;SDS011;1643;47.746;9.000;2022-12-07T03:36:57;23.53;;;15.27;;
3261;SDS011;1643;47.746;9.000;2022-12-07T03:39:25;25.83;;;14.67;;
3261;SDS011;1643;47.746;9.000;2022-12-07T03:41:53;25.80;;;15.10;;
3261;SDS011;1643;47.746;9.000;2022-12-07T03:44:19;30.40;;;18.33;;
3261;SDS011;1643;47.746;9.000;2022-12-07T03:46:57;32.23;;;17.40;;
3261;SDS011;1643;47.746;9.000;2022-12-07T03:57:25;25.67;;;14.47;;
3261;SDS011;1643;47.746;9.000;2022-12-07T03:59:53;30.53;;;15.77;;
3261;SDS011;1643;47.746;9.000;2022-12-07T04:02:20;27.83;;;15.90;;
3261;SDS011;1643;47.746;9.000;2022-12-07T04:04:46;28.43;;;15.40;;
3261;SDS011;1643;47.746;9.000;2022-12-07T04:07:12;29.43;;;17.90;;
3261;SDS011;1643;47.746;9.000;2022-12-07T04:09:38;26.60;;;15.80;;
3261;SDS011;1643;47.746;9.000;2022-12-07T04:12:04;26.50;;;15.90;;
3261;SDS011;1643;47.746;9.000;2022-12-07T04:14:30;28.83;;;15.77;;
3261;SDS011;1643;47.746;9.000;2022-12-07T04:16:57;27.10;;;15.87;;
3261;SDS011;1643;47.746;9.000;2022-12-07T04:19:25;27.87;;;15.87;;
3261;SDS011;1643;47.746;9.000;2022-12-07T04:21:51;24.83;;;15.50;;
3261;SDS011;1643;47.746;9.000;2022-12-07T04:24:17;23.73;;;14.77;;
3261;SDS011;1643;47.746;9.000;2022-12-07T04:26:43;27.80;;;16.00;;
3261;SDS011;1643;47.746;9.000;2022-12-07T04:29:09;27.13;;;14.77;;
3261;SDS011;1643;47.746;9.000;2022-12-07T04:31:36;34.10;;;20.13;;
3261;SDS011;1643;47.746;9.000;2022-12-07T04:34:02;24.50;;;14.23;;
3261;SDS011;1643;47.746;9.000;2022-12-07T04:36:28;23.77;;;14.80;;
3261;SDS011;1643;47.746;9.000;2022-12-07T04:38:55;26.37;;;16.57;;
3261;SDS011;1643;47.746;9.000;2022-12-07T04:41:21;27.57;;;15.13;;
3261;SDS011;1643;47.746;9.000;2022-12-07T04:43:54;26.30;;;15.30;;
3261;SDS011;1643;47.746;9.000;2022-12-07T04:46:21;27.13;;;15.27;;
3261;SDS011;1643;47.746;9.000;2022-12-07T04:48:47;29.20;;;16.03;;
3261;SDS011;1643;47.746;9.000;2022-12-07T04:51:14;24.30;;;15.27;;
3261;SDS011;1643;47.746;9.000;2022-12-07T04:53:41;28.80;;;14.97;;
3261;SDS011;1643;47.746;9.000;2022-12-07T04:56:07;25.83;;;15.40;;
3261;SDS011;1643;47.746;9.000;2022-12-07T04:58:33;22.27;;;14.30;;
3261;SDS011;1643;47.746;9.000;2022-12-07T05:00:59;29.77;;;16.20;;
3261;SDS011;1643;47.746;9.000;2022-12-07T05:03:25;23.03;;;14.10;;
3261;SDS011;1643;47.746;9.000;2022-12-07T05:05:51;27.40;;;15.53;;
3261;SDS011;1643;47.746;9.000;2022-12-07T05:08:17;29.93;;;15.50;;
3261;SDS011;1643;47.746;9.000;2022-12-07T05:10:43;24.53;;;13.67;;
3261;SDS011;1643;47.746;9.000;2022-12-07T05:13:09;26.73;;;14.47;;
3261;SDS011;1643;47.746;9.000;2022-12-07T05:15:35;26.70;;;16.80;;
3261;SDS011;1643;47.746;9.000;2022-12-07T05:18:01;29.70;;;16.43;;
3261;SDS011;1643;47.746;9.000;2022-12-07T05:20:28;30.03;;;15.33;;
3261;SDS011;1643;47.746;9.000;2022-12-07T05:22:54;25.73;;;14.77;;
3261;SDS011;1643;47.746;9.000;2022-12-07T05:25:20;30.90;;;15.43;;
3261;SDS011;1643;47.746;9.000;2022-12-07T05:27:46;21.90;;;13.90;;
3261;SDS011;1643;47.746;9.000;2022-12-07T05:30:12;23.13;;;15.33;;
3261;SDS011;1643;47.746;9.000;2022-12-07T05:32:38;25.37;;;14.60;;
3261;SDS011;1643;47.746;9.000;2022-12-07T05:35:04;29.53;;;15.67;;
3261;SDS011;1643;47.746;9.000;2022-12-07T05:37:30;25.97;;;14.00;;
3261;SDS011;1643;47.746;9.000;2022-12-07T05:39:56;25.23;;;15.00;;
3261;SDS011;1643;47.746;9.000;2022-12-07T05:42:22;26.43;;;15.73;;
3261;SDS011;1643;47.746;9.000;2022-12-07T05:44:48;25.30;;;13.63;;
3261;SDS011;1643;47.746;9.000;2022-12-07T05:47:14;27.87;;;15.20;;
3261;SDS011;1643;47.746;9.000;2022-12-07T05:49:41;26.67;;;15.33;;
3261;SDS011;1643;47.746;9.000;2022-12-07T05:52:07;24.90;;;14.27;;
3261;SDS011;1643;47.746;9.000;2022-12-07T05:54:33;26.77;;;15.40;;
3261;SDS011;1643;47.746;9.000;2022-12-07T05:56:59;25.53;;;14.70;;
3261;SDS011;1643;47.746;9.000;2022-12-07T05:59:25;24.67;;;15.10;;
3261;SDS011;1643;47.746;9.000;2022-12-07T06:04:18;22.20;;;14.10;;
3261;SDS011;1643;47.746;9.000;2022-12-07T06:06:44;29.20;;;15.67;;
3261;SDS011;1643;47.746;9.000;2022-12-07T06:09:10;27.17;;;15.53;;
3261;SDS011;1643;47.746;9.000;2022-12-07T06:11:37;25.40;;;14.20;;
3261;SDS011;1643;47.746;9.000;2022-12-07T06:14:22;23.33;;;14.50;;
3261;SDS011;1643;47.746;9.000;2022-12-07T06:16:48;26.20;;;15.00;;
3261;SDS011;1643;47.746;9.000;2022-12-07T06:19:14;27.17;;;15.53;;
3261;SDS011;1643;47.746;9.000;2022-12-07T06:21:40;25.00;;;15.33;;
3261;SDS011;1643;47.746;9.000;2022-12-07T06:24:06;28.00;;;16.47;;
3261;SDS011;1643;47.746;9.000;2022-12-07T06:26:32;27.30;;;15.40;;
3261;SDS011;1643;47.746;9.000;2022-12-07T06:28:58;29.97;;;17.10;;
3261;SDS011;1643;47.746;9.000;2022-12-07T06:31:24;24.53;;;14.83;;
3261;SDS011;1643;47.746;9.000;2022-12-07T06:33:50;30.27;;;16.57;;
3261;SDS011;1643;47.746;9.000;2022-12-07T06:36:16;25.13;;;14.97;;
3261;SDS011;1643;47.746;9.000;2022-12-07T06:38:42;33.53;;;15.13;;
3261;SDS011;1643;47.746;9.000;2022-12-07T06:41:08;25.73;;;13.93;;
3261;SDS011;1643;47.746;9.000;2022-12-07T06:43:34;30.10;;;15.97;;
3261;SDS011;1643;47.746;9.000;2022-12-07T06:46:00;25.60;;;14.93;;
3261;SDS011;1643;47.746;9.000;2022-12-07T06:48:26;26.53;;;15.07;;
3261;SDS011;1643;47.746;9.000;2022-12-07T06:50:52;32.30;;;15.50;;
3261;SDS011;1643;47.746;9.000;2022-12-07T06:53:18;28.83;;;14.70;;
3261;SDS011;1643;47.746;9.000;2022-12-07T06:55:44;22.30;;;14.27;;
3261;SDS011;1643;47.746;9.000;2022-12-07T06:58:10;29.67;;;15.83;;
3261;SDS011;1643;47.746;9.000;2022-12-07T07:00:36;24.97;;;14.57;;
3261;SDS011;1643;47.746;9.000;2022-12-07T07:03:02;27.20;;;15.50;;
3261;SDS011;1643;47.746;9.000;2022-12-07T07:05:28;25.67;;;16.17;;
3261;SDS011;1643;47.746;9.000;2022-12-07T07:07:54;30.33;;;16.30;;
3261;SDS011;1643;47.746;9.000;2022-12-07T07:10:20;26.20;;;15.67;;
3261;SDS011;1643;47.746;9.000;2022-12-07T07:12:46;27.67;;;16.23;;
3261;SDS011;1643;47.746;9.000;2022-12-07T07:15:12;23.87;;;14.07;;
3261;SDS011;1643;47.746;9.000;2022-12-07T07:17:38;24.17;;;14.20;;
3261;SDS011;1643;47.746;9.000;2022-12-07T07:20:04;25.23;;;16.10;;
3261;SDS011;1643;47.746;9.000;2022-12-07T07:22:31;33.07;;;18.00;;
3261;SDS011;1643;47.746;9.000;2022-12-07T07:24:57;31.07;;;18.70;;
3261;SDS011;1643;47.746;9.000;2022-12-07T07:27:23;25.17;;;14.67;;
3261;SDS011;1643;47.746;9.000;2022-12-07T07:29:49;32.23;;;16.27;;
3261;SDS011;1643;47.746;9.000;2022-12-07T07:32:15;27.57;;;14.53;;
3261;SDS011;1643;47.746;9.000;2022-12-07T07:34:41;30.13;;;16.23;;
3261;SDS011;1643;47.746;9.000;2022-12-07T07:37:07;25.87;;;13.87;;
3261;SDS011;1643;47.746;9.000;2022-12-07T07:39:33;27.23;;;14.70;;
3261;SDS011;1643;47.746;9.000;2022-12-07T07:41:59;25.83;;;15.13;;
3261;SDS011;1643;47.746;9.000;2022-12-07T07:44:25;30.90;;;16.00;;
3261;SDS011;1643;47.746;9.000;2022-12-07T07:46:50;29.30;;;16.37;;
3261;SDS011;1643;47.746;9.000;2022-12-07T07:49:16;30.90;;;15.47;;
3261;SDS011;1643;47.746;9.000;2022-12-07T07:51:42;23.33;;;13.90;;
3261;SDS011;1643;47.746;9.000;2022-12-07T07:54:09;28.80;;;16.13;;
3261;SDS011;1643;47.746;9.000;2022-12-07T07:56:35;29.47;;;16.40;;
3261;SDS011;1643;47.746;9.000;2022-12-07T07:59:01;25.83;;;15.20;;
3261;SDS011;1643;47.746;9.000;2022-12-07T08:01:27;27.77;;;15.47;;
3261;SDS011;1643;47.746;9.000;2022-12-07T08:03:53;33.83;;;17.13;;
3261;SDS011;1643;47.746;9.000;2022-12-07T08:06:19;30.77;;;15.10;;
3261;SDS011;1643;47.746;9.000;2022-12-07T08:08:45;24.40;;;14.20;;
3261;SDS011;1643;47.746;9.000;2022-12-07T08:11:11;25.77;;;14.00;;
3261;SDS011;1643;47.746;9.000;2022-12-07T08:13:37;28.17;;;15.17;;
3261;SDS011;1643;47.746;9.000;2022-12-07T08:16:04;28.30;;;13.90;;
3261;SDS011;1643;47.746;9.000;2022-12-07T08:18:30;24.53;;;14.57;;
3261;SDS011;1643;47.746;9.000;2022-12-07T08:20:59;28.93;;;14.70;;
3261;SDS011;1643;47.746;9.000;2022-12-07T08:23:26;25.90;;;13.17;;
3261;SDS011;1643;47.746;9.000;2022-12-07T08:25:52;28.97;;;15.33;;
3261;SDS011;1643;47.746;9.000;2022-12-07T08:28:18;25.90;;;15.60;;
3261;SDS011;1643;47.746;9.000;2022-12-07T08:30:44;25.67;;;14.73;;
3261;SDS011;1643;47.746;9.000;2022-12-07T08:33:10;24.77;;;14.93;;
3261;SDS011;1643;47.746;9.000;2022-12-07T08:35:36;22.23;;;13.93;;
3261;SDS011;1643;47.746;9.000;2022-12-07T08:38:02;22.60;;;14.20;;
3261;SDS011;1643;47.746;9.000;2022-12-07T08:40:29;22.27;;;13.50;;
3261;SDS011;1643;47.746;9.000;2022-12-07T08:42:55;23.43;;;13.53;;
3261;SDS011;1643;47.746;9.000;2022-12-07T08:45:21;26.07;;;14.27;;
3261;SDS011;1643;47.746;9.000;2022-12-07T08:47:49;22.17;;;13.37;;
3261;SDS011;1643;47.746;9.000;2022-12-07T08:50:16;24.10;;;13.57;;
3261;SDS011;1643;47.746;9.000;2022-12-07T08:52:42;22.90;;;12.93;;
3261;SDS011;1643;47.746;9.000;2022-12-07T08:55:12;25.60;;;13.67;;
3261;SDS011;1643;47.746;9.000;2022-12-07T08:57:38;23.80;;;13.60;;
3261;SDS011;1643;47.746;9.000;2022-12-07T09:00:05;21.73;;;13.00;;
3261;SDS011;1643;47.746;9.000;2022-12-07T09:02:31;22.80;;;12.43;;
3261;SDS011;1643;47.746;9.000;2022-12-07T09:04:57;18.97;;;11.13;;
3261;SDS011;1643;47.746;9.000;2022-12-07T09:07:24;26.23;;;13.40;;
3261;SDS011;1643;47.746;9.000;2022-12-07T09:09:50;20.57;;;13.30;;
3261;SDS011;1643;47.746;9.000;2022-12-07T09:12:16;18.63;;;12.17;;
3261;SDS011;1643;47.746;9.000;2022-12-07T09:14:42;19.70;;;11.67;;
3261;SDS011;1643;47.746;9.000;2022-12-07T09:17:09;22.50;;;13.37;;
3261;SDS011;1643;47.746;9.000;2022-12-07T09:19:35;24.73;;;13.47;;
3261;SDS011;1643;47.746;9.000;2022-12-07T09:22:02;27.37;;;13.20;;
3261;SDS011;1643;47.746;9.000;2022-12-07T09:24:29;20.97;;;12.70;;
3261;SDS011;1643;47.746;9.000;2022-12-07T09:26:55;24.03;;;13.47;;
3261;SDS011;1643;47.746;9.000;2022-12-07T09:29:21;18.53;;;11.63;;
3261;SDS011;1643;47.746;9.000;2022-12-07T09:31:47;19.03;;;11.30;;
3261;SDS011;1643;47.746;9.000;2022-12-07T09:34:13;22.03;;;13.57;;
3261;SDS011;1643;47.746;9.000;2022-12-07T09:36:39;22.50;;;13.17;;
3261;SDS011;1643;47.746;9.000;2022-12-07T09:39:05;23.90;;;14.03;;
3261;SDS011;1643;47.746;9.000;2022-12-07T09:41:31;27.37;;;16.40;;
3261;SDS011;1643;47.746;9.000;2022-12-07T09:44:02;23.57;;;12.33;;
3261;SDS011;1643;47.746;9.000;2022-12-07T09:46:29;23.30;;;13.60;;
3261;SDS011;1643;47.746;9.000;2022-12-07T09:48:59;23.50;;;13.13;;
3261;SDS011;1643;47.746;9.000;2022-12-07T09:51:25;21.60;;;13.53;;
3261;SDS011;1643;47.746;9.000;2022-12-07T09:53:51;22.50;;;12.80;;
3261;SDS011;1643;47.746;9.000;2022-12-07T09:56:18;24.83;;;13.17;;
3261;SDS011;1643;47.746;9.000;2022-12-07T09:58:45;25.47;;;14.30;;
3261;SDS011;1643;47.746;9.000;2022-12-07T10:03:38;27.10;;;14.37;;
3261;SDS011;1643;47.746;9.000;2022-12-07T10:06:05;20.87;;;11.70;;
3261;SDS011;1643;47.746;9.000;2022-12-07T10:08:32;23.67;;;13.67;;
3261;SDS011;1643;47.746;9.000;2022-12-07T10:10:58;20.40;;;11.43;;
3261;SDS011;1643;47.746;9.000;2022-12-07T10:13:37;25.03;;;13.50;;
3261;SDS011;1643;47.746;9.000;2022-12-07T10:16:04;18.40;;;11.30;;
3261;SDS011;1643;47.746;9.000;2022-12-07T10:23:27;21.37;;;11.93;;
3261;SDS011;1643;47.746;9.000;2022-12-07T10:25:53;19.30;;;11.27;;
3261;SDS011;1643;47.746;9.000;2022-12-07T10:28:20;16.57;;;11.00;;
3261;SDS011;1643;47.746;9.000;2022-12-07T10:33:55;18.10;;;11.70;;
3261;SDS011;1643;47.746;9.000;2022-12-07T10:36:15;19.73;;;12.00;;
3261;SDS011;1643;47.746;9.000;2022-12-07T10:38:49;37.93;;;19.37;;
3261;SDS011;1643;47.746;9.000;2022-12-07T10:41:16;27.50;;;15.70;;
3261;SDS011;1643;47.746;9.000;2022-12-07T10:43:49;27.03;;;14.90;;
3261;SDS011;1643;47.746;9.000;2022-12-07T10:51:37;21.73;;;12.10;;
3261;SDS011;1643;47.746;9.000;2022-12-07T11:09:39;20.03;;;12.37;;
3261;SDS011;1643;47.746;9.000;2022-12-07T11:12:33;19.47;;;11.57;;
3261;SDS011;1643;47.746;9.000;2022-12-07T11:15:01;18.13;;;10.83;;
3261;SDS011;1643;47.746;9.000;2022-12-07T11:20:04;20.50;;;12.40;;
3261;SDS011;1643;47.746;9.000;2022-12-07T11:23:21;18.10;;;12.23;;
3261;SDS011;1643;47.746;9.000;2022-12-07T11:25:38;16.50;;;10.67;;
3261;SDS011;1643;47.746;9.000;2022-12-07T11:28:17;15.53;;;9.83;;
3261;SDS011;1643;47.746;9.000;2022-12-07T11:30:50;16.67;;;10.20;;
3261;SDS011;1643;47.746;9.000;2022-12-07T11:33:38;16.47;;;9.10;;
3261;SDS011;1643;47.746;9.000;2022-12-07T11:36:14;20.20;;;11.50;;
3261;SDS011;1643;47.746;9.000;2022-12-07T11:39:44;17.53;;;10.60;;
3261;SDS011;1643;47.746;9.000;2022-12-07T11:41:38;15.80;;;9.63;;
3261;SDS011;1643;47.746;9.000;2022-12-07T11:44:21;15.77;;;9.50;;
3261;SDS011;1643;47.746;9.000;2022-12-07T11:46:53;16.30;;;11.27;;
3261;SDS011;1643;47.746;9.000;2022-12-07T11:51:52;11.13;;;7.40;;
3261;SDS011;1643;47.746;9.000;2022-12-07T11:54:21;14.70;;;9.87;;
3261;SDS011;1643;47.746;9.000;2022-12-07T11:56:50;12.70;;;8.67;;
3261;SDS011;1643;47.746;9.000;2022-12-07T11:59:18;15.43;;;8.13;;
3261;SDS011;1643;47.746;9.000;2022-12-07T12:01:51;13.67;;;9.57;;
3261;SDS011;1643;47.746;9.000;2022-12-07T12:07:17;10.57;;;7.73;;
3261;SDS011;1643;47.746;9.000;2022-12-07T12:09:48;11.13;;;6.83;;
3261;SDS011;1643;47.746;9.000;2022-12-07T12:15:15;11.97;;;8.17;;
3261;SDS011;1643;47.746;9.000;2022-12-07T12:20:50;13.20;;;8.90;;
3261;SDS011;1643;47.746;9.000;2022-12-07T12:23:19;11.00;;;7.40;;
3261;SDS011;1643;47.746;9.000;2022-12-07T12:25:55;15.97;;;8.43;;
3261;SDS011;1643;47.746;9.000;2022-12-07T12:31:04;10.60;;;6.47;;
3261;SDS011;1643;47.746;9.000;2022-12-07T12:33:30;9.83;;;7.70;;
3261;SDS011;1643;47.746;9.000;2022-12-07T12:46:48;9.43;;;6.63;;
3261;SDS011;1643;47.746;9.000;2022-12-07T12:51:44;8.13;;;6.03;;
3261;SDS011;1643;47.746;9.000;2022-12-07T12:54:21;12.57;;;7.37;;
3261;SDS011;1643;47.746;9.000;2022-12-07T13:02:38;9.70;;;6.10;;
3261;SDS011;1643;47.746;9.000;2022-12-07T13:10:09;8.67;;;5.53;;
3261;SDS011;1643;47.746;9.000;2022-12-07T13:12:54;11.60;;;6.40;;
3261;SDS011;1643;47.746;9.000;2022-12-07T13:20:54;10.10;;;6.00;;
3261;SDS011;1643;47.746;9.000;2022-12-07T13:23:23;7.07;;;5.30;;
3261;SDS011;1643;47.746;9.000;2022-12-07T13:28:38;7.40;;;5.80;;
3261;SDS011;1643;47.746;9.000;2022-12-07T13:31:18;7.00;;;5.63;;
3261;SDS011;1643;47.746;9.000;2022-12-07T13:33:45;9.40;;;6.10;;
3261;SDS011;1643;47.746;9.000;2022-12-07T13:36:14;8.40;;;5.70;;
3261;SDS011;1643;47.746;9.000;2022-12-07T13:38:47;9.60;;;4.63;;
3261;SDS011;1643;47.746;9.000;2022-12-07T13:41:15;8.13;;;5.03;;
3261;SDS011;1643;47.746;9.000;2022-12-07T13:46:35;8.57;;;5.27;;
3261;SDS011;1643;47.746;9.000;2022-12-07T13:49:15;6.03;;;5.00;;
3261;SDS011;1643;47.746;9.000;2022-12-07T13:51:42;5.50;;;4.20;;
3261;SDS011;1643;47.746;9.000;2022-12-07T13:54:09;5.77;;;4.43;;
3261;SDS011;1643;47.746;9.000;2022-12-07T13:56:36;11.40;;;5.23;;
3261;SDS011;1643;47.746;9.000;2022-12-07T13:59:05;8.07;;;5.27;;
3261;SDS011;1643;47.746;9.000;2022-12-07T14:01:31;7.67;;;5.23;;
3261;SDS011;1643;47.746;9.000;2022-12-07T14:04:16;9.43;;;6.73;;
3261;SDS011;1643;47.746;9.000;2022-12-07T14:06:49;10.20;;;7.20;;
3261;SDS011;1643;47.746;9.000;2022-12-07T14:11:41;9.60;;;6.40;;
3261;SDS011;1643;47.746;9.000;2022-12-07T14:14:10;9.97;;;7.00;;
3261;SDS011;1643;47.746;9.000;2022-12-07T14:16:38;10.37;;;7.57;;
3261;SDS011;1643;47.746;9.000;2022-12-07T14:19:06;14.27;;;9.60;;
3261;SDS011;1643;47.746;9.000;2022-12-07T14:22:05;12.07;;;7.97;;
3261;SDS011;1643;47.746;9.000;2022-12-07T14:24:33;15.87;;;9.50;;
3261;SDS011;1643;47.746;9.000;2022-12-07T14:27:15;11.57;;;7.73;;
3261;SDS011;1643;47.746;9.000;2022-12-07T14:29:42;8.30;;;6.77;;
3261;SDS011;1643;47.746;9.000;2022-12-07T14:32:24;11.47;;;7.13;;
3261;SDS011;1643;47.746;9.000;2022-12-07T14:37:23;10.97;;;7.60;;
3261;SDS011;1643;47.746;9.000;2022-12-07T14:39:50;11.10;;;7.53;;
3261;SDS011;1643;47.746;9.000;2022-12-07T14:42:16;8.13;;;6.50;;
3261;SDS011;1643;47.746;9.000;2022-12-07T14:44:42;9.57;;;7.37;;
3261;SDS011;1643;47.746;9.000;2022-12-07T14:47:09;9.97;;;6.60;;
3261;SDS011;1643;47.746;9.000;2022-12-07T14:49:36;9.97;;;7.00;;
3261;SDS011;1643;47.746;9.000;2022-12-07T14:52:02;9.47;;;7.23;;
3261;SDS011;1643;47.746;9.000;2022-12-07T14:54:29;8.73;;;6.40;;
3261;SDS011;1643;47.746;9.000;2022-12-07T14:56:56;10.13;;;7.60;;
3261;SDS011;1643;47.746;9.000;2022-12-07T14:59:22;11.17;;;7.93;;
3261;SDS011;1643;47.746;9.000;2022-12-07T15:01:48;12.10;;;7.03;;
3261;SDS011;1643;47.746;9.000;2022-12-07T15:04:14;10.70;;;6.80;;
3261;SDS011;1643;47.746;9.000;2022-12-07T15:06:40;10.87;;;7.63;;
3261;SDS011;1643;47.746;9.000;2022-12-07T15:09:09;11.43;;;7.50;;
3261;SDS011;1643;47.746;9.000;2022-12-07T15:11:36;8.40;;;5.93;;
3261;SDS011;1643;47.746;9.000;2022-12-07T15:14:02;12.40;;;7.10;;
3261;SDS011;1643;47.746;9.000;2022-12-07T15:16:36;11.00;;;6.93;;
3261;SDS011;1643;47.746;9.000;2022-12-07T15:19:02;7.30;;;6.10;;
3261;SDS011;1643;47.746;9.000;2022-12-07T15:21:28;9.63;;;7.00;;
3261;SDS011;1643;47.746;9.000;2022-12-07T15:23:54;9.63;;;7.50;;
3261;SDS011;1643;47.746;9.000;2022-12-07T15:26:20;8.87;;;6.33;;
3261;SDS011;1643;47.746;9.000;2022-12-07T15:28:46;10.00;;;6.63;;
3261;SDS011;1643;47.746;9.000;2022-12-07T15:31:16;10.37;;;6.27;;
3261;SDS011;1643;47.746;9.000;2022-12-07T15:33:43;6.97;;;5.23;;
3261;SDS011;1643;47.746;9.000;2022-12-07T15:36:14;7.87;;;5.47;;
3261;SDS011;1643;47.746;9.000;2022-12-07T15:38:43;9.27;;;5.67;;
3261;SDS011;1643;47.746;9.000;2022-12-07T15:41:09;8.63;;;6.43;;
3261;SDS011;1643;47.746;9.000;2022-12-07T15:43:36;8.13;;;5.83;;
3261;SDS011;1643;47.746;9.000;2022-12-07T15:46:21;8.37;;;5.63;;
3261;SDS011;1643;47.746;9.000;2022-12-07T15:48:47;7.70;;;5.73;;
3261;SDS011;1643;47.746;9.000;2022-12-07T15:51:13;8.57;;;5.90;;
3261;SDS011;1643;47.746;9.000;2022-12-07T15:53:39;7.20;;;5.50;;
3261;SDS011;1643;47.746;9.000;2022-12-07T15:56:05;9.33;;;7.00;;
3261;SDS011;1643;47.746;9.000;2022-12-07T15:58:31;8.40;;;6.10;;
3261;SDS011;1643;47.746;9.000;2022-12-07T16:00:57;9.37;;;5.83;;
3261;SDS011;1643;47.746;9.000;2022-12-07T16:03:23;9.07;;;6.37;;
3261;SDS011;1643;47.746;9.000;2022-12-07T16:05:50;13.97;;;7.40;;
3261;SDS011;1643;47.746;9.000;2022-12-07T16:08:16;8.40;;;6.80;;
3261;SDS011;1643;47.746;9.000;2022-12-07T16:10:42;8.40;;;5.53;;
3261;SDS011;1643;47.746;9.000;2022-12-07T16:13:11;8.47;;;5.80;;
3261;SDS011;1643;47.746;9.000;2022-12-07T16:15:42;11.47;;;6.30;;
3261;SDS011;1643;47.746;9.000;2022-12-07T16:18:08;9.70;;;5.93;;
3261;SDS011;1643;47.746;9.000;2022-12-07T16:20:34;10.80;;;6.17;;
3261;SDS011;1643;47.746;9.000;2022-12-07T16:23:00;9.47;;;5.80;;
3261;SDS011;1643;47.746;9.000;2022-12-07T16:25:27;8.50;;;5.80;;
3261;SDS011;1643;47.746;9.000;2022-12-07T16:27:53;7.57;;;6.13;;
3261;SDS011;1643;47.746;9.000;2022-12-07T16:30:19;10.40;;;6.80;;
3261;SDS011;1643;47.746;9.000;2022-12-07T16:32:45;8.07;;;6.17;;
3261;SDS011;1643;47.746;9.000;2022-12-07T16:35:11;13.43;;;7.33;;
3261;SDS011;1643;47.746;9.000;2022-12-07T16:37:38;8.03;;;5.93;;
3261;SDS011;1643;47.746;9.000;2022-12-07T16:40:04;7.40;;;5.87;;
3261;SDS011;1643;47.746;9.000;2022-12-07T16:42:33;14.90;;;6.53;;
3261;SDS011;1643;47.746;9.000;2022-12-07T16:45:00;13.27;;;6.40;;